Bayonne, New Jersey
Current Conditions -  °F | °C
As of 10:51 AM on Monday 24 Nov 2014 (Local Time) from KEWR Reporting Station
Broken Clouds Broken Clouds  
Wind Chill: 67°   Ceiling: 1700
Heat Index: 67°   Visibility: 10mi
Dew Point: 59°   Wind: 15mph
Humidity: 73%   Direction: 190°S
Pressure: 29.65"   Gusts: 24mph
Location:  40.67°N, 74.12°W
Report Text: KEWR 241551Z 19013G21KT 10SM BKN017 BKN030 BKN042 20/15 A2965 RMK AO2 PK WND 19027/1538 SLP039 T01970148 $
Loading
Personal Weather Stations






























Interactive Weather Map New forecast layout! Learn more

10-Day Weather Forecast

Advertisements
Track Severe Weather on mobile